sensor_id;sensor_type;location;lat;lon;timestamp;P1;durP1;ratioP1;P2;durP2;ratioP2
20271;SDS011;10295;49.812;9.866;2023-06-14T00:00:18;10.80;;;4.70;;
20271;SDS011;10295;49.812;9.866;2023-06-14T00:02:46;10.43;;;4.87;;
20271;SDS011;10295;49.812;9.866;2023-06-14T00:05:13;10.67;;;4.73;;
20271;SDS011;10295;49.812;9.866;2023-06-14T00:07:41;10.83;;;4.90;;
20271;SDS011;10295;49.812;9.866;2023-06-14T00:10:10;10.50;;;4.60;;
20271;SDS011;10295;49.812;9.866;2023-06-14T00:12:37;10.67;;;4.90;;
20271;SDS011;10295;49.812;9.866;2023-06-14T00:15:05;12.47;;;4.97;;
20271;SDS011;10295;49.812;9.866;2023-06-14T00:17:32;13.53;;;4.87;;
20271;SDS011;10295;49.812;9.866;2023-06-14T00:20:01;13.90;;;4.70;;
20271;SDS011;10295;49.812;9.866;2023-06-14T00:22:29;12.27;;;4.83;;
20271;SDS011;10295;49.812;9.866;2023-06-14T00:24:58;10.57;;;4.80;;
20271;SDS011;10295;49.812;9.866;2023-06-14T00:27:33;12.50;;;4.83;;
20271;SDS011;10295;49.812;9.866;2023-06-14T00:30:01;12.73;;;5.43;;
20271;SDS011;10295;49.812;9.866;2023-06-14T00:32:28;10.90;;;4.53;;
20271;SDS011;10295;49.812;9.866;2023-06-14T00:34:56;13.87;;;4.60;;
20271;SDS011;10295;49.812;9.866;2023-06-14T00:37:23;12.30;;;4.67;;
20271;SDS011;10295;49.812;9.866;2023-06-14T00:39:50;13.77;;;4.90;;
20271;SDS011;10295;49.812;9.866;2023-06-14T00:42:24;12.50;;;5.10;;
20271;SDS011;10295;49.812;9.866;2023-06-14T00:44:51;12.93;;;5.03;;
20271;SDS011;10295;49.812;9.866;2023-06-14T00:47:19;10.70;;;4.40;;
20271;SDS011;10295;49.812;9.866;2023-06-14T00:49:47;11.23;;;4.60;;
20271;SDS011;10295;49.812;9.866;2023-06-14T00:52:15;12.90;;;4.80;;
20271;SDS011;10295;49.812;9.866;2023-06-14T00:54:43;17.77;;;5.10;;
20271;SDS011;10295;49.812;9.866;2023-06-14T00:57:10;9.60;;;4.70;;
20271;SDS011;10295;49.812;9.866;2023-06-14T00:59:40;10.77;;;4.57;;
20271;SDS011;10295;49.812;9.866;2023-06-14T01:02:09;13.20;;;5.20;;
20271;SDS011;10295;49.812;9.866;2023-06-14T01:04:36;10.90;;;5.03;;
20271;SDS011;10295;49.812;9.866;2023-06-14T01:07:28;11.73;;;4.70;;
20271;SDS011;10295;49.812;9.866;2023-06-14T01:09:58;11.27;;;4.63;;
20271;SDS011;10295;49.812;9.866;2023-06-14T01:14:57;12.70;;;5.07;;
20271;SDS011;10295;49.812;9.866;2023-06-14T01:17:26;14.97;;;4.93;;
20271;SDS011;10295;49.812;9.866;2023-06-14T01:19:53;15.60;;;4.87;;
20271;SDS011;10295;49.812;9.866;2023-06-14T01:22:25;10.63;;;4.73;;
20271;SDS011;10295;49.812;9.866;2023-06-14T01:24:53;15.23;;;4.80;;
20271;SDS011;10295;49.812;9.866;2023-06-14T01:27:22;13.97;;;4.80;;
20271;SDS011;10295;49.812;9.866;2023-06-14T01:29:53;12.13;;;5.30;;
20271;SDS011;10295;49.812;9.866;2023-06-14T01:32:23;12.13;;;4.87;;
20271;SDS011;10295;49.812;9.866;2023-06-14T01:34:51;13.50;;;4.80;;
20271;SDS011;10295;49.812;9.866;2023-06-14T01:37:19;12.90;;;4.67;;
20271;SDS011;10295;49.812;9.866;2023-06-14T01:39:47;14.73;;;5.20;;
20271;SDS011;10295;49.812;9.866;2023-06-14T01:42:16;14.03;;;5.10;;
20271;SDS011;10295;49.812;9.866;2023-06-14T01:44:43;13.27;;;5.17;;
20271;SDS011;10295;49.812;9.866;2023-06-14T01:47:11;13.40;;;5.10;;
20271;SDS011;10295;49.812;9.866;2023-06-14T01:49:38;12.50;;;5.20;;
20271;SDS011;10295;49.812;9.866;2023-06-14T01:52:06;13.57;;;5.13;;
20271;SDS011;10295;49.812;9.866;2023-06-14T01:54:36;10.53;;;4.70;;
20271;SDS011;10295;49.812;9.866;2023-06-14T01:57:08;12.50;;;4.97;;
20271;SDS011;10295;49.812;9.866;2023-06-14T01:59:36;12.07;;;5.57;;
20271;SDS011;10295;49.812;9.866;2023-06-14T02:02:04;11.73;;;5.17;;
20271;SDS011;10295;49.812;9.866;2023-06-14T02:04:31;13.70;;;5.00;;
20271;SDS011;10295;49.812;9.866;2023-06-14T02:06:58;12.13;;;4.63;;
20271;SDS011;10295;49.812;9.866;2023-06-14T02:09:26;10.90;;;5.17;;
20271;SDS011;10295;49.812;9.866;2023-06-14T02:11:53;13.07;;;4.83;;
20271;SDS011;10295;49.812;9.866;2023-06-14T02:14:20;10.63;;;4.73;;
20271;SDS011;10295;49.812;9.866;2023-06-14T02:16:47;11.20;;;5.13;;
20271;SDS011;10295;49.812;9.866;2023-06-14T02:19:18;11.37;;;4.70;;
20271;SDS011;10295;49.812;9.866;2023-06-14T02:21:46;12.17;;;5.30;;
20271;SDS011;10295;49.812;9.866;2023-06-14T02:24:13;14.40;;;5.13;;
20271;SDS011;10295;49.812;9.866;2023-06-14T02:26:41;9.60;;;4.70;;
20271;SDS011;10295;49.812;9.866;2023-06-14T02:29:08;14.90;;;5.17;;
20271;SDS011;10295;49.812;9.866;2023-06-14T02:31:37;11.03;;;5.23;;
20271;SDS011;10295;49.812;9.866;2023-06-14T02:34:05;13.03;;;5.40;;
20271;SDS011;10295;49.812;9.866;2023-06-14T02:36:35;11.83;;;5.00;;
20271;SDS011;10295;49.812;9.866;2023-06-14T02:39:10;11.10;;;4.93;;
20271;SDS011;10295;49.812;9.866;2023-06-14T02:41:37;10.53;;;5.00;;
20271;SDS011;10295;49.812;9.866;2023-06-14T02:44:05;12.00;;;4.83;;
20271;SDS011;10295;49.812;9.866;2023-06-14T02:46:32;15.23;;;5.50;;
20271;SDS011;10295;49.812;9.866;2023-06-14T02:48:59;12.40;;;5.30;;
20271;SDS011;10295;49.812;9.866;2023-06-14T02:51:27;10.70;;;5.40;;
20271;SDS011;10295;49.812;9.866;2023-06-14T02:53:54;14.27;;;5.10;;
20271;SDS011;10295;49.812;9.866;2023-06-14T02:56:21;14.80;;;5.60;;
20271;SDS011;10295;49.812;9.866;2023-06-14T02:58:49;12.10;;;5.13;;
20271;SDS011;10295;49.812;9.866;2023-06-14T03:01:16;16.50;;;5.27;;
20271;SDS011;10295;49.812;9.866;2023-06-14T03:03:44;13.20;;;5.17;;
20271;SDS011;10295;49.812;9.866;2023-06-14T03:06:11;13.20;;;5.40;;
20271;SDS011;10295;49.812;9.866;2023-06-14T03:08:39;12.27;;;5.30;;
20271;SDS011;10295;49.812;9.866;2023-06-14T03:11:07;14.27;;;5.63;;
20271;SDS011;10295;49.812;9.866;2023-06-14T03:13:35;12.70;;;5.40;;
20271;SDS011;10295;49.812;9.866;2023-06-14T03:16:03;11.67;;;4.97;;
20271;SDS011;10295;49.812;9.866;2023-06-14T03:18:30;16.63;;;5.70;;
20271;SDS011;10295;49.812;9.866;2023-06-14T03:21:02;14.03;;;5.50;;
20271;SDS011;10295;49.812;9.866;2023-06-14T03:23:29;12.57;;;5.23;;
20271;SDS011;10295;49.812;9.866;2023-06-14T03:25:57;20.03;;;6.07;;
20271;SDS011;10295;49.812;9.866;2023-06-14T03:28:24;17.07;;;5.70;;
20271;SDS011;10295;49.812;9.866;2023-06-14T03:30:52;12.07;;;5.57;;
20271;SDS011;10295;49.812;9.866;2023-06-14T03:33:19;13.43;;;5.63;;
20271;SDS011;10295;49.812;9.866;2023-06-14T03:35:47;12.83;;;5.60;;
20271;SDS011;10295;49.812;9.866;2023-06-14T03:38:14;11.43;;;5.10;;
20271;SDS011;10295;49.812;9.866;2023-06-14T03:40:41;21.07;;;5.90;;
20271;SDS011;10295;49.812;9.866;2023-06-14T03:43:08;13.50;;;5.13;;
20271;SDS011;10295;49.812;9.866;2023-06-14T03:45:36;11.97;;;5.20;;
20271;SDS011;10295;49.812;9.866;2023-06-14T03:48:03;13.27;;;5.30;;
20271;SDS011;10295;49.812;9.866;2023-06-14T03:50:33;11.90;;;4.93;;
20271;SDS011;10295;49.812;9.866;2023-06-14T03:53:00;11.07;;;5.30;;
20271;SDS011;10295;49.812;9.866;2023-06-14T03:55:27;10.40;;;4.90;;
20271;SDS011;10295;49.812;9.866;2023-06-14T03:58:00;11.60;;;5.50;;
20271;SDS011;10295;49.812;9.866;2023-06-14T04:00:27;13.63;;;5.90;;
20271;SDS011;10295;49.812;9.866;2023-06-14T04:02:54;13.83;;;6.10;;
20271;SDS011;10295;49.812;9.866;2023-06-14T04:05:22;11.30;;;5.33;;
20271;SDS011;10295;49.812;9.866;2023-06-14T04:07:53;14.30;;;5.37;;
20271;SDS011;10295;49.812;9.866;2023-06-14T04:10:22;13.43;;;5.17;;
20271;SDS011;10295;49.812;9.866;2023-06-14T04:12:49;12.63;;;4.90;;
20271;SDS011;10295;49.812;9.866;2023-06-14T04:15:18;13.27;;;5.07;;
20271;SDS011;10295;49.812;9.866;2023-06-14T04:17:47;13.17;;;5.07;;
20271;SDS011;10295;49.812;9.866;2023-06-14T04:20:15;13.13;;;4.90;;
20271;SDS011;10295;49.812;9.866;2023-06-14T04:22:43;11.27;;;5.00;;
20271;SDS011;10295;49.812;9.866;2023-06-14T04:25:10;10.53;;;5.27;;
20271;SDS011;10295;49.812;9.866;2023-06-14T04:27:38;9.93;;;5.00;;
20271;SDS011;10295;49.812;9.866;2023-06-14T04:30:06;10.80;;;4.80;;
20271;SDS011;10295;49.812;9.866;2023-06-14T04:32:33;11.37;;;4.80;;
20271;SDS011;10295;49.812;9.866;2023-06-14T04:35:05;12.00;;;5.13;;
20271;SDS011;10295;49.812;9.866;2023-06-14T04:37:33;17.87;;;5.30;;
20271;SDS011;10295;49.812;9.866;2023-06-14T04:40:00;9.87;;;4.60;;
20271;SDS011;10295;49.812;9.866;2023-06-14T04:42:31;12.17;;;4.60;;
20271;SDS011;10295;49.812;9.866;2023-06-14T04:44:58;11.63;;;5.00;;
20271;SDS011;10295;49.812;9.866;2023-06-14T04:47:25;12.37;;;5.13;;
20271;SDS011;10295;49.812;9.866;2023-06-14T04:49:56;14.13;;;4.90;;
20271;SDS011;10295;49.812;9.866;2023-06-14T04:52:24;12.17;;;5.00;;
20271;SDS011;10295;49.812;9.866;2023-06-14T04:54:52;13.95;;;4.95;;
20271;SDS011;10295;49.812;9.866;2023-06-14T04:57:23;13.43;;;4.82;;
20271;SDS011;10295;49.812;9.866;2023-06-14T04:59:51;9.07;;;4.25;;
20271;SDS011;10295;49.812;9.866;2023-06-14T05:02:22;14.90;;;4.95;;
20271;SDS011;10295;49.812;9.866;2023-06-14T05:04:50;10.73;;;4.50;;
20271;SDS011;10295;49.812;9.866;2023-06-14T05:07:17;10.80;;;4.47;;
20271;SDS011;10295;49.812;9.866;2023-06-14T05:09:44;12.95;;;6.07;;
20271;SDS011;10295;49.812;9.866;2023-06-14T05:12:12;10.63;;;4.72;;
20271;SDS011;10295;49.812;9.866;2023-06-14T05:14:39;12.38;;;4.80;;
20271;SDS011;10295;49.812;9.866;2023-06-14T05:17:06;13.70;;;4.90;;
20271;SDS011;10295;49.812;9.866;2023-06-14T05:19:33;12.35;;;4.47;;
20271;SDS011;10295;49.812;9.866;2023-06-14T05:22:01;14.30;;;4.90;;
20271;SDS011;10295;49.812;9.866;2023-06-14T05:24:29;12.30;;;4.60;;
20271;SDS011;10295;49.812;9.866;2023-06-14T05:26:57;11.40;;;4.10;;
20271;SDS011;10295;49.812;9.866;2023-06-14T05:29:24;10.50;;;4.35;;
20271;SDS011;10295;49.812;9.866;2023-06-14T05:31:55;11.93;;;4.70;;
20271;SDS011;10295;49.812;9.866;2023-06-14T05:34:23;11.98;;;4.53;;
20271;SDS011;10295;49.812;9.866;2023-06-14T05:36:50;12.77;;;4.53;;
20271;SDS011;10295;49.812;9.866;2023-06-14T05:39:17;11.50;;;4.32;;
20271;SDS011;10295;49.812;9.866;2023-06-14T05:41:44;9.73;;;4.20;;
20271;SDS011;10295;49.812;9.866;2023-06-14T05:44:14;11.38;;;4.18;;
20271;SDS011;10295;49.812;9.866;2023-06-14T05:46:41;10.23;;;4.05;;
20271;SDS011;10295;49.812;9.866;2023-06-14T05:49:09;11.88;;;4.25;;
20271;SDS011;10295;49.812;9.866;2023-06-14T05:51:38;11.77;;;4.15;;
20271;SDS011;10295;49.812;9.866;2023-06-14T05:54:05;11.20;;;4.18;;
20271;SDS011;10295;49.812;9.866;2023-06-14T05:56:32;11.02;;;4.57;;
20271;SDS011;10295;49.812;9.866;2023-06-14T05:58:59;10.07;;;3.90;;
20271;SDS011;10295;49.812;9.866;2023-06-14T06:01:27;13.98;;;4.18;;
20271;SDS011;10295;49.812;9.866;2023-06-14T06:03:54;9.07;;;4.00;;
20271;SDS011;10295;49.812;9.866;2023-06-14T06:06:21;13.48;;;3.95;;
20271;SDS011;10295;49.812;9.866;2023-06-14T06:08:48;11.32;;;3.97;;
20271;SDS011;10295;49.812;9.866;2023-06-14T06:11:16;10.18;;;4.30;;
20271;SDS011;10295;49.812;9.866;2023-06-14T06:13:43;12.65;;;4.32;;
20271;SDS011;10295;49.812;9.866;2023-06-14T06:16:10;11.65;;;4.57;;
20271;SDS011;10295;49.812;9.866;2023-06-14T06:18:37;11.60;;;4.20;;
20271;SDS011;10295;49.812;9.866;2023-06-14T06:21:05;12.90;;;4.47;;
20271;SDS011;10295;49.812;9.866;2023-06-14T06:23:32;12.35;;;4.13;;
20271;SDS011;10295;49.812;9.866;2023-06-14T06:26:00;11.20;;;3.90;;
20271;SDS011;10295;49.812;9.866;2023-06-14T06:28:27;9.10;;;4.10;;
20271;SDS011;10295;49.812;9.866;2023-06-14T06:30:55;8.68;;;4.05;;
20271;SDS011;10295;49.812;9.866;2023-06-14T06:33:22;11.20;;;4.47;;
20271;SDS011;10295;49.812;9.866;2023-06-14T06:35:49;10.40;;;4.07;;
20271;SDS011;10295;49.812;9.866;2023-06-14T06:38:17;9.02;;;3.95;;
20271;SDS011;10295;49.812;9.866;2023-06-14T06:40:45;11.32;;;4.50;;
20271;SDS011;10295;49.812;9.866;2023-06-14T06:43:12;8.70;;;3.97;;
20271;SDS011;10295;49.812;9.866;2023-06-14T06:45:40;12.50;;;4.38;;
20271;SDS011;10295;49.812;9.866;2023-06-14T06:48:07;10.57;;;4.30;;
20271;SDS011;10295;49.812;9.866;2023-06-14T06:50:36;10.02;;;3.78;;
20271;SDS011;10295;49.812;9.866;2023-06-14T06:53:04;12.43;;;4.05;;
20271;SDS011;10295;49.812;9.866;2023-06-14T06:55:31;8.95;;;4.22;;
20271;SDS011;10295;49.812;9.866;2023-06-14T06:57:58;9.88;;;4.22;;
20271;SDS011;10295;49.812;9.866;2023-06-14T07:00:26;10.65;;;4.45;;
20271;SDS011;10295;49.812;9.866;2023-06-14T07:02:54;9.65;;;4.10;;
20271;SDS011;10295;49.812;9.866;2023-06-14T07:05:21;12.40;;;4.35;;
20271;SDS011;10295;49.812;9.866;2023-06-14T07:07:49;11.60;;;4.20;;
20271;SDS011;10295;49.812;9.866;2023-06-14T07:10:16;13.30;;;4.70;;
20271;SDS011;10295;49.812;9.866;2023-06-14T07:12:43;12.10;;;4.78;;
20271;SDS011;10295;49.812;9.866;2023-06-14T07:15:11;10.68;;;4.47;;
20271;SDS011;10295;49.812;9.866;2023-06-14T07:17:39;10.90;;;4.28;;
20271;SDS011;10295;49.812;9.866;2023-06-14T07:20:06;9.75;;;4.80;;
20271;SDS011;10295;49.812;9.866;2023-06-14T07:22:34;10.45;;;4.47;;
20271;SDS011;10295;49.812;9.866;2023-06-14T07:25:01;13.63;;;4.15;;
20271;SDS011;10295;49.812;9.866;2023-06-14T07:27:29;12.85;;;4.10;;
20271;SDS011;10295;49.812;9.866;2023-06-14T07:29:56;11.60;;;4.28;;
20271;SDS011;10295;49.812;9.866;2023-06-14T07:32:23;14.20;;;4.25;;
20271;SDS011;10295;49.812;9.866;2023-06-14T07:34:50;11.25;;;3.80;;
20271;SDS011;10295;49.812;9.866;2023-06-14T07:37:18;12.57;;;4.15;;
20271;SDS011;10295;49.812;9.866;2023-06-14T07:39:45;9.18;;;4.05;;
20271;SDS011;10295;49.812;9.866;2023-06-14T07:42:12;12.60;;;4.15;;
20271;SDS011;10295;49.812;9.866;2023-06-14T07:44:39;12.23;;;4.05;;
20271;SDS011;10295;49.812;9.866;2023-06-14T07:47:06;10.25;;;3.90;;
20271;SDS011;10295;49.812;9.866;2023-06-14T07:49:34;8.68;;;4.43;;
20271;SDS011;10295;49.812;9.866;2023-06-14T07:52:01;11.23;;;4.88;;
20271;SDS011;10295;49.812;9.866;2023-06-14T07:54:28;14.93;;;4.60;;
20271;SDS011;10295;49.812;9.866;2023-06-14T07:56:56;10.15;;;3.80;;
20271;SDS011;10295;49.812;9.866;2023-06-14T07:59:24;11.23;;;3.95;;
20271;SDS011;10295;49.812;9.866;2023-06-14T08:01:51;10.18;;;3.80;;
20271;SDS011;10295;49.812;9.866;2023-06-14T08:04:19;13.70;;;3.88;;
20271;SDS011;10295;49.812;9.866;2023-06-14T08:06:46;10.00;;;3.70;;
20271;SDS011;10295;49.812;9.866;2023-06-14T08:09:14;7.50;;;3.75;;
20271;SDS011;10295;49.812;9.866;2023-06-14T08:11:41;8.85;;;4.28;;
20271;SDS011;10295;49.812;9.866;2023-06-14T08:14:08;14.05;;;4.20;;
20271;SDS011;10295;49.812;9.866;2023-06-14T08:16:36;10.50;;;4.05;;
20271;SDS011;10295;49.812;9.866;2023-06-14T08:19:04;8.85;;;4.20;;
20271;SDS011;10295;49.812;9.866;2023-06-14T08:21:31;10.15;;;3.90;;
20271;SDS011;10295;49.812;9.866;2023-06-14T08:23:59;10.45;;;4.20;;
20271;SDS011;10295;49.812;9.866;2023-06-14T08:26:27;9.50;;;4.03;;
20271;SDS011;10295;49.812;9.866;2023-06-14T08:28:58;9.77;;;4.20;;
20271;SDS011;10295;49.812;9.866;2023-06-14T08:31:25;8.85;;;3.88;;
20271;SDS011;10295;49.812;9.866;2023-06-14T08:33:53;11.65;;;4.28;;
20271;SDS011;10295;49.812;9.866;2023-06-14T08:36:21;8.70;;;4.18;;
20271;SDS011;10295;49.812;9.866;2023-06-14T08:38:49;8.38;;;4.05;;
20271;SDS011;10295;49.812;9.866;2023-06-14T08:41:22;10.18;;;4.45;;
20271;SDS011;10295;49.812;9.866;2023-06-14T08:43:51;9.10;;;4.05;;
20271;SDS011;10295;49.812;9.866;2023-06-14T08:46:18;14.43;;;4.63;;
20271;SDS011;10295;49.812;9.866;2023-06-14T08:48:46;8.73;;;4.00;;
20271;SDS011;10295;49.812;9.866;2023-06-14T08:51:14;13.27;;;4.55;;
20271;SDS011;10295;49.812;9.866;2023-06-14T08:53:43;8.98;;;4.22;;
20271;SDS011;10295;49.812;9.866;2023-06-14T08:56:11;8.57;;;4.10;;
20271;SDS011;10295;49.812;9.866;2023-06-14T08:58:42;9.68;;;3.92;;
20271;SDS011;10295;49.812;9.866;2023-06-14T09:01:11;11.52;;;4.20;;
20271;SDS011;10295;49.812;9.866;2023-06-14T09:03:41;9.98;;;3.95;;
20271;SDS011;10295;49.812;9.866;2023-06-14T09:06:08;9.02;;;3.92;;
20271;SDS011;10295;49.812;9.866;2023-06-14T09:08:40;11.18;;;4.10;;
20271;SDS011;10295;49.812;9.866;2023-06-14T09:11:09;9.07;;;3.92;;
20271;SDS011;10295;49.812;9.866;2023-06-14T09:13:37;9.75;;;4.25;;
20271;SDS011;10295;49.812;9.866;2023-06-14T09:16:05;12.82;;;4.30;;
20271;SDS011;10295;49.812;9.866;2023-06-14T09:18:43;9.55;;;4.32;;
20271;SDS011;10295;49.812;9.866;2023-06-14T09:21:11;10.68;;;3.80;;
20271;SDS011;10295;49.812;9.866;2023-06-14T09:23:39;9.02;;;3.80;;
20271;SDS011;10295;49.812;9.866;2023-06-14T09:26:10;9.73;;;4.00;;
20271;SDS011;10295;49.812;9.866;2023-06-14T09:28:41;10.38;;;3.65;;
20271;SDS011;10295;49.812;9.866;2023-06-14T09:31:12;9.95;;;3.63;;
20271;SDS011;10295;49.812;9.866;2023-06-14T09:33:41;11.43;;;3.78;;
20271;SDS011;10295;49.812;9.866;2023-06-14T09:36:17;11.57;;;3.55;;
20271;SDS011;10295;49.812;9.866;2023-06-14T09:39:03;9.63;;;3.60;;
20271;SDS011;10295;49.812;9.866;2023-06-14T09:41:39;8.13;;;3.42;;
20271;SDS011;10295;49.812;9.866;2023-06-14T09:44:07;9.80;;;3.30;;
20271;SDS011;10295;49.812;9.866;2023-06-14T09:46:42;10.40;;;3.83;;
20271;SDS011;10295;49.812;9.866;2023-06-14T09:49:10;9.25;;;3.88;;
20271;SDS011;10295;49.812;9.866;2023-06-14T09:51:45;12.32;;;4.10;;
20271;SDS011;10295;49.812;9.866;2023-06-14T09:54:15;8.38;;;3.55;;
20271;SDS011;10295;49.812;9.866;2023-06-14T09:56:46;12.25;;;3.92;;
20271;SDS011;10295;49.812;9.866;2023-06-14T09:59:16;9.25;;;3.83;;
20271;SDS011;10295;49.812;9.866;2023-06-14T10:01:46;8.27;;;3.70;;
20271;SDS011;10295;49.812;9.866;2023-06-14T10:04:15;12.68;;;3.60;;
20271;SDS011;10295;49.812;9.866;2023-06-14T10:06:45;10.18;;;3.67;;
20271;SDS011;10295;49.812;9.866;2023-06-14T10:09:12;9.93;;;4.00;;
20271;SDS011;10295;49.812;9.866;2023-06-14T10:11:40;9.23;;;3.67;;
20271;SDS011;10295;49.812;9.866;2023-06-14T10:14:11;11.75;;;3.70;;
20271;SDS011;10295;49.812;9.866;2023-06-14T10:19:18;12.52;;;3.63;;
20271;SDS011;10295;49.812;9.866;2023-06-14T10:24:33;9.98;;;3.00;;
20271;SDS011;10295;49.812;9.866;2023-06-14T10:27:00;8.82;;;3.60;;
20271;SDS011;10295;49.812;9.866;2023-06-14T10:29:28;10.18;;;3.60;;
20271;SDS011;10295;49.812;9.866;2023-06-14T10:31:59;9.80;;;3.30;;
20271;SDS011;10295;49.812;9.866;2023-06-14T10:34:28;10.07;;;3.38;;
20271;SDS011;10295;49.812;9.866;2023-06-14T10:37:02;7.28;;;3.50;;
20271;SDS011;10295;49.812;9.866;2023-06-14T10:39:30;9.43;;;3.50;;
20271;SDS011;10295;49.812;9.866;2023-06-14T10:41:58;11.38;;;3.40;;
20271;SDS011;10295;49.812;9.866;2023-06-14T10:46:59;8.85;;;3.33;;
20271;SDS011;10295;49.812;9.866;2023-06-14T10:52:08;6.72;;;3.08;;
20271;SDS011;10295;49.812;9.866;2023-06-14T10:54:38;7.38;;;3.25;;
20271;SDS011;10295;49.812;9.866;2023-06-14T10:57:06;10.52;;;3.55;;
20271;SDS011;10295;49.812;9.866;2023-06-14T10:59:33;8.85;;;3.42;;
20271;SDS011;10295;49.812;9.866;2023-06-14T11:04:47;11.15;;;3.38;;
20271;SDS011;10295;49.812;9.866;2023-06-14T11:07:33;12.43;;;3.13;;
20271;SDS011;10295;49.812;9.866;2023-06-14T11:12:47;9.55;;;3.10;;
20271;SDS011;10295;49.812;9.866;2023-06-14T11:15:15;10.13;;;3.00;;
20271;SDS011;10295;49.812;9.866;2023-06-14T11:17:52;7.22;;;3.13;;
20271;SDS011;10295;49.812;9.866;2023-06-14T11:20:19;7.65;;;2.95;;
20271;SDS011;10295;49.812;9.866;2023-06-14T11:22:49;9.32;;;3.35;;
20271;SDS011;10295;49.812;9.866;2023-06-14T11:25:16;9.30;;;3.10;;
20271;SDS011;10295;49.812;9.866;2023-06-14T11:27:44;7.78;;;3.30;;
20271;SDS011;10295;49.812;9.866;2023-06-14T11:30:12;7.32;;;3.20;;
20271;SDS011;10295;49.812;9.866;2023-06-14T11:32:40;9.57;;;3.03;;
20271;SDS011;10295;49.812;9.866;2023-06-14T11:35:07;9.35;;;3.50;;
20271;SDS011;10295;49.812;9.866;2023-06-14T11:37:35;10.13;;;2.85;;
20271;SDS011;10295;49.812;9.866;2023-06-14T11:40:06;9.43;;;2.90;;
20271;SDS011;10295;49.812;9.866;2023-06-14T11:42:36;9.15;;;3.03;;
20271;SDS011;10295;49.812;9.866;2023-06-14T11:45:06;10.73;;;3.00;;
20271;SDS011;10295;49.812;9.866;2023-06-14T11:47:35;8.80;;;3.13;;
20271;SDS011;10295;49.812;9.866;2023-06-14T11:50:03;9.02;;;3.05;;
20271;SDS011;10295;49.812;9.866;2023-06-14T11:52:31;9.15;;;3.13;;
20271;SDS011;10295;49.812;9.866;2023-06-14T11:54:58;7.72;;;3.17;;
20271;SDS011;10295;49.812;9.866;2023-06-14T11:57:25;6.90;;;2.88;;
20271;SDS011;10295;49.812;9.866;2023-06-14T11:59:54;9.70;;;3.22;;
20271;SDS011;10295;49.812;9.866;2023-06-14T12:02:22;7.78;;;2.75;;
20271;SDS011;10295;49.812;9.866;2023-06-14T12:04:51;7.53;;;2.83;;
20271;SDS011;10295;49.812;9.866;2023-06-14T12:07:19;13.82;;;3.08;;
20271;SDS011;10295;49.812;9.866;2023-06-14T12:12:22;6.63;;;2.83;;
20271;SDS011;10295;49.812;9.866;2023-06-14T12:14:51;7.40;;;2.75;;
20271;SDS011;10295;49.812;9.866;2023-06-14T12:17:19;8.05;;;2.95;;
20271;SDS011;10295;49.812;9.866;2023-06-14T12:19:46;12.15;;;3.15;;
20271;SDS011;10295;49.812;9.866;2023-06-14T12:22:16;7.97;;;2.90;;
20271;SDS011;10295;49.812;9.866;2023-06-14T12:24:43;8.35;;;2.63;;
20271;SDS011;10295;49.812;9.866;2023-06-14T12:27:11;12.27;;;3.10;;
20271;SDS011;10295;49.812;9.866;2023-06-14T12:29:42;9.43;;;3.00;;
20271;SDS011;10295;49.812;9.866;2023-06-14T12:32:12;10.25;;;2.95;;
20271;SDS011;10295;49.812;9.866;2023-06-14T12:34:39;10.45;;;2.83;;
20271;SDS011;10295;49.812;9.866;2023-06-14T12:37:07;8.00;;;2.60;;
20271;SDS011;10295;49.812;9.866;2023-06-14T12:39:34;10.73;;;3.08;;
20271;SDS011;10295;49.812;9.866;2023-06-14T12:42:05;8.48;;;2.80;;
20271;SDS011;10295;49.812;9.866;2023-06-14T12:44:32;8.20;;;2.85;;
20271;SDS011;10295;49.812;9.866;2023-06-14T12:47:01;7.90;;;2.70;;
20271;SDS011;10295;49.812;9.866;2023-06-14T12:49:29;8.25;;;3.03;;
20271;SDS011;10295;49.812;9.866;2023-06-14T12:51:56;8.05;;;3.00;;
20271;SDS011;10295;49.812;9.866;2023-06-14T12:54:23;7.10;;;2.67;;
20271;SDS011;10295;49.812;9.866;2023-06-14T12:57:06;6.80;;;2.92;;
20271;SDS011;10295;49.812;9.866;2023-06-14T12:59:34;8.75;;;2.85;;
20271;SDS011;10295;49.812;9.866;2023-06-14T13:02:11;9.43;;;2.83;;
20271;SDS011;10295;49.812;9.866;2023-06-14T13:04:38;8.30;;;2.75;;
20271;SDS011;10295;49.812;9.866;2023-06-14T13:07:06;8.70;;;2.90;;
20271;SDS011;10295;49.812;9.866;2023-06-14T13:09:33;6.25;;;2.65;;
20271;SDS011;10295;49.812;9.866;2023-06-14T13:12:01;9.48;;;3.25;;
20271;SDS011;10295;49.812;9.866;2023-06-14T13:14:28;7.65;;;2.75;;
20271;SDS011;10295;49.812;9.866;2023-06-14T13:16:56;6.03;;;2.83;;
20271;SDS011;10295;49.812;9.866;2023-06-14T13:19:23;8.25;;;2.88;;
20271;SDS011;10295;49.812;9.866;2023-06-14T13:21:50;7.35;;;2.50;;
20271;SDS011;10295;49.812;9.866;2023-06-14T13:24:17;9.05;;;2.65;;
20271;SDS011;10295;49.812;9.866;2023-06-14T13:26:45;6.45;;;2.70;;
20271;SDS011;10295;49.812;9.866;2023-06-14T13:29:12;5.95;;;2.60;;
20271;SDS011;10295;49.812;9.866;2023-06-14T13:31:39;8.10;;;2.83;;
20271;SDS011;10295;49.812;9.866;2023-06-14T13:34:06;6.22;;;2.60;;
20271;SDS011;10295;49.812;9.866;2023-06-14T13:36:34;9.07;;;2.63;;
20271;SDS011;10295;49.812;9.866;2023-06-14T13:39:01;7.18;;;2.70;;
20271;SDS011;10295;49.812;9.866;2023-06-14T13:41:28;8.35;;;2.75;;
20271;SDS011;10295;49.812;9.866;2023-06-14T13:43:58;7.60;;;2.50;;
20271;SDS011;10295;49.812;9.866;2023-06-14T13:46:25;6.63;;;2.60;;
20271;SDS011;10295;49.812;9.866;2023-06-14T13:48:52;6.68;;;2.80;;
20271;SDS011;10295;49.812;9.866;2023-06-14T13:51:20;7.70;;;2.88;;
20271;SDS011;10295;49.812;9.866;2023-06-14T13:53:48;6.63;;;2.85;;
20271;SDS011;10295;49.812;9.866;2023-06-14T13:56:15;7.55;;;2.58;;
20271;SDS011;10295;49.812;9.866;2023-06-14T13:58:42;9.50;;;2.75;;
20271;SDS011;10295;49.812;9.866;2023-06-14T14:01:10;6.63;;;2.40;;
20271;SDS011;10295;49.812;9.866;2023-06-14T14:03:38;8.38;;;2.80;;
20271;SDS011;10295;49.812;9.866;2023-06-14T14:06:05;10.68;;;2.70;;
20271;SDS011;10295;49.812;9.866;2023-06-14T14:08:33;7.68;;;2.42;;
20271;SDS011;10295;49.812;9.866;2023-06-14T14:11:00;6.75;;;2.80;;
20271;SDS011;10295;49.812;9.866;2023-06-14T14:13:27;6.20;;;2.60;;
20271;SDS011;10295;49.812;9.866;2023-06-14T14:15:55;7.55;;;2.50;;
20271;SDS011;10295;49.812;9.866;2023-06-14T14:18:22;6.85;;;2.42;;
20271;SDS011;10295;49.812;9.866;2023-06-14T14:20:50;9.13;;;2.80;;
20271;SDS011;10295;49.812;9.866;2023-06-14T14:23:17;10.32;;;2.63;;
20271;SDS011;10295;49.812;9.866;2023-06-14T14:25:46;11.10;;;2.60;;
20271;SDS011;10295;49.812;9.866;2023-06-14T14:28:13;7.88;;;2.75;;
20271;SDS011;10295;49.812;9.866;2023-06-14T14:30:42;7.00;;;2.50;;
20271;SDS011;10295;49.812;9.866;2023-06-14T14:33:09;6.40;;;2.50;;
20271;SDS011;10295;49.812;9.866;2023-06-14T14:35:42;5.97;;;2.33;;
20271;SDS011;10295;49.812;9.866;2023-06-14T14:38:09;8.10;;;2.55;;
20271;SDS011;10295;49.812;9.866;2023-06-14T14:40:36;10.40;;;2.70;;
20271;SDS011;10295;49.812;9.866;2023-06-14T14:43:03;5.60;;;2.50;;
20271;SDS011;10295;49.812;9.866;2023-06-14T14:45:31;7.15;;;2.83;;
20271;SDS011;10295;49.812;9.866;2023-06-14T14:48:00;7.80;;;2.80;;
20271;SDS011;10295;49.812;9.866;2023-06-14T14:50:27;10.10;;;2.75;;
20271;SDS011;10295;49.812;9.866;2023-06-14T14:52:54;6.82;;;2.70;;
20271;SDS011;10295;49.812;9.866;2023-06-14T14:55:22;8.20;;;2.38;;
20271;SDS011;10295;49.812;9.866;2023-06-14T14:57:49;10.43;;;2.35;;
20271;SDS011;10295;49.812;9.866;2023-06-14T15:00:16;8.90;;;2.70;;
20271;SDS011;10295;49.812;9.866;2023-06-14T15:02:44;5.55;;;2.67;;
20271;SDS011;10295;49.812;9.866;2023-06-14T15:05:11;10.73;;;2.47;;